6M0 weather

Hazen Municipal Airport
Hazen, Arkansas, United States

Public forecast

Using degrees Fahrenheit for public forecast. Weather courtesy of forecast.io.

METAR (pilot weather report)

Closest report is Stuttgart Municipal Airport / Carl Humphrey Field, 10.1 nm (18.7 km) SSE. Retrieved 2019/09/19 14:56 UTC (43 minutes ago):

KSGT 191456Z AUTO VRB04KT 10SM CLR 29/22 A3002 RMK AO2 SLP164 T02890222 53012

TAF (pilot weather forecast)

Closest forecast is Little Rock Air Force Base, 26.9 nm (49.9 km) WNW. Retrieved 2019/09/19 15:06 UTC (33 minutes ago):

TAF TAF KLRF 191500Z 1915/2021 11006KT 9999 FEW120 SCT150 QNH2993INS TEMPO 1922/2000 VRB15G25KT 8000 -TSRA BKN030CB OVC045 BECMG 2005/2006 16009KT 9999 FEW010 BKN030 QNH3000INS BECMG 2009/2010 14009KT 9999 BKN010 OVC020 QNH3005INS BECMG 2017/2018 VRB12G20KT 8000 -TSRA BKN020CB OVC050 QNH3005INS TX33/1921Z TN22/2011Z